Flight Track Log - Related Links

Times and Time Zones

All times are in EDT time to prevent confusion due to time zone crossing. See the RPA3901 flight status page for this flight to view local times or setup timezone preferences in your user account.

Time Position Orientation Groundspeed Altitude Reporting Facility
EDT Latitude Longitude Course Direction KTS MPH feet Rate Location/Type
Tue 09:40:22 AM 40.6500 -74.1833 194° South 187 215 1,600  Level New York TRACON
Tue 09:41:22 AM 40.6000 -74.2167 207° Southwest 213 245 3,800 2,150 Climbing New York TRACON
Tue 09:42:22 AM 40.5500 -74.2667 217° Southwest 214 246 5,900 1,100 Climbing New York TRACON
Tue 09:43:00 AM 40.3598 -74.1825 157° South  Level FlightAware Approximate
Tue 09:43:22 AM 40.4833 -74.2500 169° South 245 282 6,000  Level New York TRACON
Tue 09:44:00 AM 40.2760 -74.1580 194° South  Level FlightAware Approximate
Tue 09:44:22 AM 40.4167 -74.2167 159° South 243 280 6,000  Level New York TRACON
Tue 09:45:00 AM 40.1893 -74.1869 194° South  Level FlightAware Approximate
Tue 09:45:53 AM 40.3397 -74.1747 157° South 252 290 6,400  Level New York Center
Tue 09:46:51 AM 40.2647 -74.1736 179° South 241 277 8,100 1,750 Climbing New York Center
Tue 09:47:53 AM 40.2056 -74.1953 196° South 241 277 9,900 1,650 Climbing New York Center
Tue 09:48:51 AM 40.1319 -74.2189 194° South 246 283 11,400 1,450 Climbing New York Center
Tue 09:49:53 AM 40.0661 -74.2617 206° Southwest 251 289 12,800 1,388 Climbing New York Center
Tue 09:50:52 AM 40.0122 -74.3239 221° Southwest 262 302 14,200 1,423 Climbing New York Center
Tue 09:51:30 AM 39.9781 -74.3594 219° Southwest 265 305 15,100 1,394 Climbing Washington Center
Tue 09:52:31 AM 39.9225 -74.4228 221° Southwest 255 293 16,500 1,311 Climbing Washington Center
Tue 09:53:29 AM 39.8667 -74.4831 220° Southwest 255 293 17,700 1,160 Climbing Washington Center
Tue 09:54:30 AM 39.8131 -74.5461 222° Southwest 260 299 18,800 1,033 Climbing Washington Center
Tue 09:55:31 AM 39.7594 -74.6064 221° Southwest 260 299 19,800 590 Climbing Washington Center
Tue 09:56:32 AM 39.7100 -74.6608 220° Southwest 260 299 20,000 102 Climbing Washington Center
Tue 09:57:29 AM 39.6478 -74.7292 220° Southwest 274 315 20,000  Level Washington Center
Tue 09:58:30 AM 39.5797 -74.8028 220° Southwest 301 346 20,000  Level Washington Center
Tue 09:59:31 AM 39.5114 -74.8814 222° Southwest 320 368 20,000  Level Washington Center
Tue 10:00:29 AM 39.4431 -74.9547 220° Southwest 325 374 20,000  Level Washington Center
Tue 10:01:30 AM 39.3706 -75.0358 221° Southwest 330 380 20,000  Level Washington Center
Tue 10:02:31 AM 39.3000 -75.1114 220° Southwest 330 380 20,000  Level Washington Center
Tue 10:03:32 AM 39.2125 -75.1522 200° South 330 380 20,000  Level Washington Center
Tue 10:04:29 AM 39.1211 -75.1903 198° South 337 388 20,000  Level Washington Center
Tue 10:05:30 AM 39.0336 -75.2283 199° South 337 388 20,000  Level Washington Center
Tue 10:06:31 AM 38.9483 -75.2606 196° South 332 382 20,000  Level Washington Center
Tue 10:07:31 AM 38.8628 -75.2958 198° South 327 376 20,000  Level Washington Center
Tue 10:08:29 AM 38.7753 -75.3042 184° South 322 371 20,000  Level Washington Center
Tue 10:09:30 AM 38.6814 -75.3072 181° South 322 371 20,000  Level Washington Center
Tue 10:10:30 AM 38.5919 -75.3100 181° South 327 376 20,000  Level Washington Center
Tue 10:11:31 AM 38.5128 -75.3636 208° Southwest 315 362 20,000  Level Washington Center
Tue 10:12:31 AM 38.4400 -75.4300 216° Southwest 315 362 20,000  Level Washington Center
Tue 10:13:29 AM 38.3650 -75.4964 215° Southwest 322 371 20,000  Level Washington Center
Tue 10:14:29 AM 38.2878 -75.5494 208° Southwest 327 376 20,000  Level Washington Center
Tue 10:15:29 AM 38.1961 -75.5892 199° South 332 382 20,000 -344 Level Washington Center
Tue 10:16:31 AM 38.1169 -75.6525 212° Southwest 322 371 19,300 -732 Descending Washington Center
Tue 10:17:32 AM 38.0458 -75.6919 204° Southwest 322 371 18,500 -966 Descending Washington Center
Tue 10:18:29 AM 37.9561 -75.7578 210° Southwest 327 376 17,400 -1,140 Descending Washington Center
Tue 10:19:12 AM 37.8853 -75.8022 206° Southwest 349 402 16,600 -984 Descending Washington Center
Tue 10:19:30 AM 37.8683 -75.8100 200° South 338 389 16,400 -1,125 Descending Washington Center
Tue 10:20:00 AM 37.8122 -75.8442 206° Southwest 352 405 15,700 -1,000 Descending Washington Center
Tue 10:20:30 AM 37.7869 -75.8544 198° South 349 402 15,400 -1,000 Descending Washington Center
Tue 10:21:00 AM 37.7306 -75.8911 207° Southwest 309 356 14,700 -1,082 Descending Washington Center
Tue 10:21:31 AM 37.6994 -75.9119 208° Southwest 344 396 14,300 -1,164 Descending Washington Center
Tue 10:22:07 AM 37.6408 -75.9458 205° Southwest 322 371 13,400 -1,300 Descending Washington Center
Tue 10:22:31 AM 37.6219 -75.9614 213° Southwest 334 384 13,000 -1,600 Descending Washington Center
Tue 10:23:07 AM 37.5594 -75.9717 187° South 285 328 11,800 -1,500 Descending Washington Center
Tue 10:23:31 AM 37.5428 -75.9664 166° South 293 337 11,500 -1,574 Descending Washington Center
Tue 10:24:08 AM 37.4822 -75.9608 176° South 286 329 10,200 -1,759 Descending Washington Center
Tue 10:24:29 AM 37.4656 -75.9608 180° South 288 331 9,800 -1,600 Descending Washington Center
Tue 10:24:53 AM 37.4300 -75.9581 176° South 280 322 9,000 -1,700 Descending Washington Center
Tue 10:25:29 AM 37.3883 -75.9553 177° South 283 326 8,100 -1,862 Descending Washington Center
Tue 10:25:51 AM 37.3531 -75.9525 176° South 253 291 7,200 -1,672 Descending Washington Center
Tue 10:26:30 AM 37.3194 -75.9600 190° South 269 310 6,400 -1,671 Descending Washington Center
Tue 10:27:10 AM 37.2653 -75.9808 197° South 254 292 5,000 -1,672 Descending Washington Center
Tue 10:27:31 AM 37.2528 -75.9858 198° South 264 304 4,700 -1,412 Descending Washington Center
Tue 10:28:01 AM 37.2108 -76.0064 201° Southwest 246 283 3,800 -1,345 Descending Washington Center
Tue 10:28:29 AM 37.1881 -76.0142 195° South 254 292 3,400 -1,180 Descending Washington Center
Tue 10:29:02 AM 37.1461 -76.0347 201° Southwest 244 281 2,600 -988 Descending Washington Center
Tue 10:29:54 AM 37.0939 -76.0581 200° South 218 251 2,000 -303 Descending Washington Center
Tue 10:31:01 AM 37.0397 -76.0786 197° South 168 193 2,000  Level Washington Center
Tue 10:32:02 AM 36.9958 -76.1042 205° Southwest 186 214 2,000 -298 Level Washington Center
Tue 10:33:02 AM 36.9622 -76.1378 219° Southwest 134 154 1,400 -626 Descending Washington Center
Tue 10:33:57 AM 36.9350 -76.1611 214° Southwest 129 148 800 -655 Descending Washington Center

Login

Don't have an account? Register now (free) for customized features, flight alerts, and more!